Aberdeen, WA

12:06 PM PDT on October 30, 2014 (GMT -0700)
Central Park 2 | Change Station
CLOSE
Current Station
Personal Weather Station
Location: Aberdeen, WA
Elevation: 33 ft
Nearby Weather Stations
Active Advisory: Areal Flood Watch

Elev 33 ft 46.97 °N, 123.72 °W | Updated 11 minutes ago

Rain
Rain
56.5 °F
Feels Like 56.5 °F
N
2.7
Wind Variable Wind from SE

Today
High -- | Low -- °F
--% Chance of Precip.
Yesterday
High -- | Low -- °F
Precip. -- in
7:55 AM 6:01 PM
Waxing Crescent, 46% visible
Pressure 29.80 in
Visibility 6.0 miles
Clouds Overcast 2600 ft
Dew Point 55 °F
Humidity 96%
Rainfall 0.25 in
Snow Depth Not available.
UV 1 out of 12
Pollen .30 out of 12
Air Quality Not available.
Flu Activity Not available.
METAR KHQM 301853Z AUTO 05009KT 6SM BR OVC026 14/13 A2979 RMK AO2 SLP091 T01390128

More Conditions Fewer Conditions

Pressure 29.80 in
Visibility 6.0 miles
Clouds Overcast 2600 ft
Dew Point 55 °F
Humidity 96%
Rainfall 0.25 in
Snow Depth Not available.
UV 1 out of 12
Pollen .30 out of 12
Air Quality Not available.
Flu Activity Not available.
METAR KHQM 301853Z AUTO 05009KT 6SM BR OVC026 14/13 A2979 RMK AO2 SLP091 T01390128

More Conditions Fewer Conditions

10-Day Weather Forecast

Almanac

Astronomy

Oct. 30, 2014 Rise Set
Actual Time
Civil Twilight
Nautical Twilight
Astronomical Twilight
Moon
Length of Visible Light
Length of Day
Tomorrow will be .
, % of the Moon is Illuminated

Today's Extremes

State Highs State Lows

Community

WunderPhotos

Upload Photos

1,766,439 photos uploaded!

WunderBlogs® & News

Nearby

Air Quality

  Air Quality AQ Index Pollutant
Not available.

Snow Depth

Station Depth Elevation

Earthquake Activity

City Distance Mag. Time & Date
Minimum magnitude displayed is 2.5.

Coastal Water Temperatures

Place Temperature

Nearby Weather Stations